createdAt,value
2018-11-05T00:00:24.003Z,29.63
2018-11-05T00:02:54.598Z,31.52
2018-11-05T00:05:22.909Z,28.63
2018-11-05T00:07:51.288Z,31.73
2018-11-05T00:10:19.519Z,30.07
2018-11-05T00:12:47.738Z,25.85
2018-11-05T00:15:16.062Z,28.67
2018-11-05T00:17:44.310Z,29.77
2018-11-05T00:20:12.773Z,29.50
2018-11-05T00:22:41.002Z,27.93
2018-11-05T00:25:10.890Z,32.53
2018-11-05T00:27:39.446Z,30.27
2018-11-05T00:30:09.271Z,26.83
2018-11-05T00:32:37.702Z,25.23
2018-11-05T00:35:06.217Z,29.30
2018-11-05T00:37:34.459Z,28.10
2018-11-05T00:40:02.726Z,28.60
2018-11-05T00:42:30.974Z,30.47
2018-11-05T00:45:06.539Z,28.25
2018-11-05T00:47:34.779Z,28.47
2018-11-05T00:50:03.114Z,31.70
2018-11-05T00:52:31.351Z,27.77
2018-11-05T00:54:59.592Z,32.33
2018-11-05T00:57:27.748Z,30.55
2018-11-05T00:59:56.084Z,31.70
2018-11-05T01:02:24.371Z,29.47
2018-11-05T01:04:52.667Z,28.90
2018-11-05T01:07:20.923Z,24.83
2018-11-05T01:09:49.152Z,28.27
2018-11-05T01:12:17.338Z,26.33
2018-11-05T01:14:45.546Z,31.10
2018-11-05T01:17:13.775Z,29.60
2018-11-05T01:19:42.026Z,27.42
2018-11-05T01:22:10.235Z,28.93
2018-11-05T01:24:38.449Z,30.45
2018-11-05T01:27:06.673Z,30.57
2018-11-05T01:29:34.866Z,29.43
2018-11-05T01:32:03.144Z,29.57
2018-11-05T01:34:31.295Z,29.30
2018-11-05T01:36:59.502Z,27.70
2018-11-05T01:39:27.759Z,27.57
2018-11-05T01:41:56.065Z,25.63
2018-11-05T01:44:24.328Z,28.17
2018-11-05T01:46:52.594Z,25.77
2018-11-05T01:49:20.851Z,27.63
2018-11-05T01:51:49.111Z,26.80
2018-11-05T01:54:17.342Z,27.07
2018-11-05T01:56:45.592Z,24.47
2018-11-05T01:59:13.866Z,30.23
2018-11-05T02:01:42.156Z,32.50
2018-11-05T02:04:10.458Z,31.20
2018-11-05T02:06:38.731Z,32.83
2018-11-05T02:09:07.623Z,31.23
2018-11-05T02:11:35.899Z,31.25
2018-11-05T02:14:04.182Z,29.70
2018-11-05T02:16:32.535Z,26.03
2018-11-05T02:19:00.779Z,33.30
2018-11-05T02:21:29.042Z,33.20
2018-11-05T02:23:57.280Z,26.33
2018-11-05T02:26:25.594Z,34.30
2018-11-05T02:28:53.836Z,33.80
2018-11-05T02:31:22.088Z,32.35
2018-11-05T02:33:50.352Z,36.57
2018-11-05T02:36:18.630Z,32.10
2018-11-05T02:38:46.983Z,28.05
2018-11-05T02:41:15.271Z,31.33
2018-11-05T02:43:43.525Z,29.90
2018-11-05T02:46:11.780Z,30.50
2018-11-05T02:48:40.047Z,27.50
2018-11-05T02:51:08.322Z,28.10
2018-11-05T02:53:36.599Z,31.67
2018-11-05T02:56:05.513Z,32.23
2018-11-05T02:58:33.858Z,27.20
2018-11-05T03:01:02.243Z,29.95
2018-11-05T03:03:30.521Z,30.17
2018-11-05T03:05:58.770Z,29.35
2018-11-05T03:08:27.071Z,33.27
2018-11-05T03:10:55.422Z,27.73
2018-11-05T03:13:23.675Z,25.23
2018-11-05T03:15:52.019Z,21.93
2018-11-05T03:18:20.346Z,27.17
2018-11-05T03:20:48.607Z,27.90
2018-11-05T03:23:16.884Z,26.50
2018-11-05T03:25:45.215Z,26.60
2018-11-05T03:28:13.460Z,24.50
2018-11-05T03:30:41.714Z,27.80
2018-11-05T03:33:09.954Z,24.63
2018-11-05T03:35:38.216Z,30.07
2018-11-05T03:38:06.449Z,26.97
2018-11-05T03:40:35.036Z,26.55
2018-11-05T03:43:03.302Z,26.37
2018-11-05T03:45:31.579Z,24.43
2018-11-05T03:47:59.918Z,24.10
2018-11-05T03:50:28.171Z,22.95
2018-11-05T03:52:56.818Z,23.97
2018-11-05T03:55:25.150Z,26.87
2018-11-05T03:57:53.361Z,24.95
2018-11-05T04:00:21.647Z,23.47
2018-11-05T04:02:49.922Z,22.90
2018-11-05T04:05:18.163Z,25.75
2018-11-05T04:07:46.487Z,28.77
2018-11-05T04:10:14.859Z,26.57
2018-11-05T04:12:43.126Z,23.47
2018-11-05T04:15:11.791Z,19.70
2018-11-05T04:17:40.034Z,23.25
2018-11-05T04:20:10.251Z,21.07
2018-11-05T04:22:38.571Z,28.87
2018-11-05T04:25:06.844Z,23.47
2018-11-05T04:27:35.255Z,34.18
2018-11-05T04:30:03.477Z,20.90
2018-11-05T04:32:31.740Z,23.15
2018-11-05T04:34:59.969Z,25.88
2018-11-05T04:37:28.203Z,26.12
2018-11-05T04:39:56.460Z,25.77
2018-11-05T04:42:24.755Z,25.45
2018-11-05T04:44:53.026Z,24.12
2018-11-05T04:47:21.290Z,28.57
2018-11-05T04:49:49.531Z,33.98
2018-11-05T04:52:17.783Z,24.90
2018-11-05T04:54:46.042Z,22.37
2018-11-05T04:57:14.350Z,23.87
2018-11-05T04:59:42.594Z,27.48
2018-11-05T05:02:10.907Z,23.32
2018-11-05T05:04:39.343Z,25.65
2018-11-05T05:07:07.664Z,28.00
2018-11-05T05:09:35.963Z,24.82
2018-11-05T05:12:04.566Z,19.98
2018-11-05T05:14:32.904Z,24.82
2018-11-05T05:17:01.146Z,23.10
2018-11-05T05:19:29.468Z,19.27
2018-11-05T05:21:57.745Z,22.22
2018-11-05T05:24:26.072Z,27.48
2018-11-05T05:26:54.362Z,27.70
2018-11-05T05:29:22.687Z,25.15
2018-11-05T05:31:50.942Z,30.12
2018-11-05T05:34:19.213Z,30.70
2018-11-05T05:36:47.567Z,25.72
2018-11-05T05:39:15.815Z,31.02
2018-11-05T05:41:44.052Z,25.50
2018-11-05T05:44:12.365Z,26.50
2018-11-05T05:46:40.725Z,23.30
2018-11-05T05:49:09.023Z,25.45
2018-11-05T05:51:37.319Z,25.17
2018-11-05T05:54:05.848Z,33.33
2018-11-05T05:56:34.079Z,26.60
2018-11-05T05:59:02.334Z,30.02
2018-11-05T06:01:30.572Z,28.25
2018-11-05T06:03:58.819Z,34.80
2018-11-05T06:06:27.211Z,26.95
2018-11-05T06:08:55.434Z,31.30
2018-11-05T06:11:23.723Z,29.90
2018-11-05T06:13:51.953Z,31.75
2018-11-05T06:16:20.243Z,31.25
2018-11-05T06:18:48.671Z,28.73
2018-11-05T06:21:16.922Z,34.33
2018-11-05T06:23:45.435Z,31.33
2018-11-05T06:26:14.004Z,29.40
2018-11-05T06:28:42.337Z,27.67
2018-11-05T06:31:10.658Z,27.87
2018-11-05T06:33:38.916Z,30.10
2018-11-05T06:36:07.326Z,26.57
2018-11-05T06:38:35.625Z,23.75
2018-11-05T06:41:04.118Z,26.37
2018-11-05T06:43:32.414Z,25.35
2018-11-05T06:46:00.812Z,29.87
2018-11-05T06:48:29.095Z,26.68
2018-11-05T06:50:57.462Z,28.12
2018-11-05T06:53:25.768Z,29.20
2018-11-05T06:55:54.126Z,22.13
2018-11-05T06:58:22.503Z,24.82
2018-11-05T07:00:50.994Z,23.35
2018-11-05T07:03:19.279Z,26.93
2018-11-05T07:05:47.620Z,30.97
2018-11-05T07:08:15.909Z,27.17
2018-11-05T07:10:44.204Z,23.25
2018-11-05T07:13:12.491Z,23.30
2018-11-05T07:15:40.819Z,23.38
2018-11-05T07:18:09.132Z,25.10
2018-11-05T07:20:37.494Z,22.95
2018-11-05T07:23:05.961Z,23.90
2018-11-05T07:25:34.448Z,26.90
2018-11-05T07:28:02.683Z,26.30
2018-11-05T07:30:31.018Z,26.35
2018-11-05T07:32:59.277Z,23.30
2018-11-05T07:35:27.566Z,33.98
2018-11-05T07:37:55.871Z,33.55
2018-11-05T07:40:24.263Z,29.95
2018-11-05T07:42:52.520Z,30.55
2018-11-05T07:45:22.060Z,29.07
2018-11-05T07:47:50.325Z,33.38
2018-11-05T07:50:20.056Z,33.15
2018-11-05T07:52:48.416Z,28.32
2018-11-05T07:55:18.077Z,32.53
2018-11-05T07:57:47.187Z,30.80
2018-11-05T08:00:21.367Z,30.82
2018-11-05T08:02:51.490Z,28.45
2018-11-05T08:05:21.040Z,24.50
2018-11-05T08:07:49.610Z,27.65
2018-11-05T08:10:17.992Z,31.30
2018-11-05T08:12:46.674Z,27.00
2018-11-05T08:15:16.468Z,26.73
2018-11-05T08:17:45.930Z,28.12
2018-11-05T08:20:14.232Z,24.25
2018-11-05T08:22:42.529Z,30.55
2018-11-05T08:25:11.519Z,30.70
2018-11-05T08:27:40.320Z,25.08
2018-11-05T08:30:15.011Z,31.13
2018-11-05T08:32:43.798Z,29.15
2018-11-05T08:35:12.821Z,36.85
2018-11-05T08:37:41.923Z,28.40
2018-11-05T08:40:16.687Z,35.10
2018-11-05T08:42:45.867Z,27.37
2018-11-05T08:45:15.551Z,35.75
2018-11-05T08:47:43.850Z,31.63
2018-11-05T08:50:13.575Z,35.17
2018-11-05T08:52:41.818Z,28.40
2018-11-05T08:55:12.454Z,30.47
2018-11-05T08:57:41.404Z,29.07
2018-11-05T09:00:19.967Z,28.50
2018-11-05T09:02:48.552Z,30.20
2018-11-05T09:05:17.035Z,33.67
2018-11-05T09:07:46.120Z,28.07
2018-11-05T09:10:14.556Z,28.27
2018-11-05T09:12:43.053Z,31.13
2018-11-05T09:15:13.880Z,26.17
2018-11-05T09:17:43.108Z,26.02
2018-11-05T09:20:12.750Z,28.12
2018-11-05T09:22:41.169Z,24.02
2018-11-05T09:25:10.608Z,26.97
2018-11-05T09:27:39.038Z,29.50
2018-11-05T09:30:09.461Z,29.70
2018-11-05T09:32:37.734Z,26.53
2018-11-05T09:35:06.471Z,26.83
2018-11-05T09:37:34.760Z,33.83
2018-11-05T09:40:03.127Z,25.77
2018-11-05T09:42:31.430Z,26.97
2018-11-05T09:44:59.749Z,25.43
2018-11-05T09:47:28.027Z,29.00
2018-11-05T09:49:56.304Z,25.70
2018-11-05T09:52:24.634Z,28.10
2018-11-05T09:54:52.913Z,25.60
2018-11-05T09:57:21.372Z,34.40
2018-11-05T09:59:49.410Z,27.57
2018-11-05T10:02:18.017Z,22.80
2018-11-05T10:04:46.466Z,26.40
2018-11-05T10:07:14.568Z,27.47
2018-11-05T10:09:42.860Z,24.87
2018-11-05T10:12:11.127Z,23.13
2018-11-05T10:14:39.471Z,23.30
2018-11-05T10:17:07.831Z,28.00
2018-11-05T10:19:36.158Z,23.53
2018-11-05T10:22:04.411Z,26.40
2018-11-05T10:24:32.830Z,25.80
2018-11-05T10:27:01.119Z,26.27
2018-11-05T10:29:29.465Z,26.30
2018-11-05T10:31:58.278Z,28.77
2018-11-05T10:34:26.541Z,31.30
2018-11-05T10:36:54.795Z,24.90
2018-11-05T10:39:23.089Z,20.27
2018-11-05T10:41:51.348Z,20.40
2018-11-05T10:44:19.632Z,20.17
2018-11-05T10:46:47.911Z,27.60
2018-11-05T10:49:16.146Z,21.60
2018-11-05T10:51:44.409Z,21.17
2018-11-05T10:54:12.610Z,20.10
2018-11-05T10:56:40.914Z,21.17
2018-11-05T10:59:09.141Z,20.03
2018-11-05T11:01:42.691Z,21.33
2018-11-05T11:04:16.350Z,20.03
2018-11-05T11:06:44.582Z,21.57
2018-11-05T11:09:12.875Z,25.40
2018-11-05T11:11:41.207Z,23.43
2018-11-05T11:14:09.466Z,19.87
2018-11-05T11:16:38.051Z,23.03
2018-11-05T11:19:06.546Z,18.27
2018-11-05T11:21:34.834Z,20.20
2018-11-05T11:24:03.128Z,21.17
2018-11-05T11:26:31.378Z,22.03
2018-11-05T11:29:00.221Z,22.90
2018-11-05T11:31:28.358Z,21.30
2018-11-05T11:33:56.631Z,21.33
2018-11-05T11:36:25.160Z,22.33
2018-11-05T11:38:53.474Z,21.47
2018-11-05T11:41:21.741Z,21.00
2018-11-05T11:43:49.986Z,24.37
2018-11-05T11:46:18.323Z,19.63
2018-11-05T11:48:46.670Z,18.63
2018-11-05T11:51:14.943Z,20.50
2018-11-05T11:53:43.302Z,17.67
2018-11-05T11:56:11.577Z,16.70
2018-11-05T11:58:39.875Z,19.53
2018-11-05T12:01:08.155Z,19.30
2018-11-05T12:03:36.415Z,22.73
2018-11-05T12:06:04.702Z,20.37
2018-11-05T12:08:32.990Z,20.07
2018-11-05T12:11:01.286Z,19.63
2018-11-05T12:13:29.855Z,20.53
2018-11-05T12:15:58.152Z,19.83
2018-11-05T12:18:26.437Z,16.93
2018-11-05T12:20:54.672Z,16.97
2018-11-05T12:23:23.031Z,18.77
2018-11-05T12:25:51.327Z,17.27
2018-11-05T12:28:19.691Z,18.27
2018-11-05T12:30:47.986Z,17.67
2018-11-05T12:33:16.256Z,17.63
2018-11-05T12:35:44.546Z,17.50
2018-11-05T12:38:12.799Z,19.70
2018-11-05T12:40:41.287Z,16.30
2018-11-05T12:43:09.547Z,16.17
2018-11-05T12:45:37.817Z,18.17
2018-11-05T12:48:06.203Z,15.73
2018-11-05T12:50:34.512Z,17.80
2018-11-05T12:53:02.775Z,16.80
2018-11-05T12:55:31.059Z,16.77
2018-11-05T12:57:59.357Z,17.60
2018-11-05T13:00:27.633Z,13.10
2018-11-05T13:02:56.996Z,16.90
2018-11-05T13:05:26.234Z,15.50
2018-11-05T13:07:54.507Z,17.10
2018-11-05T13:10:22.954Z,14.97
2018-11-05T13:12:51.312Z,16.10
2018-11-05T13:15:19.633Z,18.73
2018-11-05T13:17:47.946Z,16.77
2018-11-05T13:20:21.371Z,17.03
2018-11-05T13:22:49.750Z,18.73
2018-11-05T13:25:18.295Z,15.30
2018-11-05T13:27:47.781Z,17.30
2018-11-05T13:30:16.574Z,14.50
2018-11-05T13:32:45.107Z,19.40
2018-11-05T13:35:15.224Z,19.70
2018-11-05T13:37:43.910Z,16.57
2018-11-05T13:40:15.174Z,15.23
2018-11-05T13:42:43.953Z,15.70
2018-11-05T13:45:13.390Z,17.83
2018-11-05T13:47:42.375Z,15.20
2018-11-05T13:50:11.143Z,16.13
2018-11-05T13:52:39.362Z,14.07
2018-11-05T13:55:09.324Z,13.30
2018-11-05T13:57:37.674Z,16.60
2018-11-05T14:00:08.078Z,12.57
2018-11-05T14:02:36.428Z,11.07
2018-11-05T14:05:05.244Z,12.63
2018-11-05T14:07:33.583Z,13.00
2018-11-05T14:10:02.262Z,14.20
2018-11-05T14:12:31.333Z,12.90
2018-11-05T14:14:59.598Z,14.03
2018-11-05T14:17:27.858Z,10.50
2018-11-05T14:19:56.183Z,13.30
2018-11-05T14:22:24.551Z,12.77
2018-11-05T14:24:52.854Z,14.50
2018-11-05T14:27:21.386Z,12.30
2018-11-05T14:29:50.153Z,14.83
2018-11-05T14:32:18.089Z,13.40
2018-11-05T14:34:46.281Z,13.63
2018-11-05T14:37:14.635Z,13.07
2018-11-05T14:39:42.958Z,14.07
2018-11-05T14:42:11.339Z,12.27
2018-11-05T14:44:39.607Z,15.20
2018-11-05T14:47:07.866Z,11.00
2018-11-05T14:49:36.246Z,11.47
2018-11-05T14:52:04.559Z,18.27
2018-11-05T14:54:32.899Z,13.03
2018-11-05T14:57:01.246Z,12.10
2018-11-05T14:59:29.486Z,11.13
2018-11-05T15:02:03.150Z,13.53
2018-11-05T15:04:31.448Z,12.10
2018-11-05T15:06:59.783Z,10.50
2018-11-05T15:09:28.057Z,13.37
2018-11-05T15:11:56.849Z,16.03
2018-11-05T15:14:25.201Z,11.20
2018-11-05T15:16:53.516Z,11.40
2018-11-05T15:19:22.121Z,11.80
2018-11-05T15:21:50.112Z,14.20
2018-11-05T15:24:18.379Z,13.00
2018-11-05T15:26:46.975Z,10.20
2018-11-05T15:29:15.187Z,9.80
2018-11-05T15:31:43.470Z,12.30
2018-11-05T15:34:11.914Z,13.60
2018-11-05T15:36:40.234Z,15.00
2018-11-05T15:39:08.913Z,17.27
2018-11-05T15:41:37.565Z,15.50
2018-11-05T15:44:06.642Z,20.73
2018-11-05T15:46:34.954Z,18.67
2018-11-05T15:49:03.299Z,18.07
2018-11-05T15:51:31.782Z,20.93
2018-11-05T15:53:59.914Z,26.50
2018-11-05T15:56:28.783Z,18.33
2018-11-05T15:58:57.132Z,17.70
2018-11-05T16:01:25.761Z,21.37
2018-11-05T16:03:54.018Z,26.27
2018-11-05T16:06:22.502Z,25.53
2018-11-05T16:08:51.063Z,23.17
2018-11-05T16:11:19.311Z,25.23
2018-11-05T16:13:47.913Z,25.67
2018-11-05T16:16:16.298Z,27.50
2018-11-05T16:18:44.754Z,26.80
2018-11-05T16:21:13.105Z,24.57
2018-11-05T16:23:41.620Z,25.33
2018-11-05T16:26:09.935Z,29.87
2018-11-05T16:28:38.266Z,27.90
2018-11-05T16:31:06.608Z,26.77
2018-11-05T16:33:34.912Z,28.60
2018-11-05T16:36:03.199Z,30.10
2018-11-05T16:38:31.575Z,37.03
2018-11-05T16:40:59.770Z,27.53
2018-11-05T16:43:28.157Z,27.63
2018-11-05T16:45:56.515Z,30.73
2018-11-05T16:48:25.249Z,25.90
2018-11-05T16:50:53.599Z,31.20
2018-11-05T16:53:21.853Z,33.03
2018-11-05T16:55:50.144Z,27.20
2018-11-05T16:58:18.417Z,30.03
2018-11-05T17:00:47.000Z,33.33
2018-11-05T17:03:15.192Z,30.00
2018-11-05T17:05:43.473Z,33.03
2018-11-05T17:08:11.810Z,29.10
2018-11-05T17:10:40.166Z,30.80
2018-11-05T17:13:08.625Z,29.97
2018-11-05T17:15:36.833Z,31.50
2018-11-05T17:18:05.123Z,30.53
2018-11-05T17:20:33.508Z,28.27
2018-11-05T17:23:01.850Z,28.47
2018-11-05T17:25:30.181Z,28.00
2018-11-05T17:27:58.476Z,29.77
2018-11-05T17:30:26.734Z,31.80
2018-11-05T17:32:55.005Z,26.13
2018-11-05T17:35:23.322Z,30.00
2018-11-05T17:37:53.892Z,34.27
2018-11-05T17:40:22.908Z,29.90
2018-11-05T17:42:51.208Z,30.07
2018-11-05T17:45:20.156Z,30.23
2018-11-05T17:47:48.641Z,31.20
2018-11-05T17:50:18.549Z,35.60
2018-11-05T17:52:47.102Z,27.63
2018-11-05T17:55:15.639Z,25.07
2018-11-05T17:57:45.130Z,27.80
2018-11-05T18:00:15.463Z,34.03
2018-11-05T18:02:43.771Z,29.17
2018-11-05T18:05:12.018Z,30.40
2018-11-05T18:07:40.293Z,34.97
2018-11-05T18:10:08.772Z,35.07
2018-11-05T18:12:37.134Z,30.60
2018-11-05T18:15:07.717Z,31.13
2018-11-05T18:17:36.171Z,31.30
2018-11-05T18:20:04.741Z,33.60
2018-11-05T18:22:33.008Z,38.50
2018-11-05T18:25:01.294Z,33.90
2018-11-05T18:27:29.557Z,34.67
2018-11-05T18:29:57.981Z,36.13
2018-11-05T18:32:26.238Z,38.70
2018-11-05T18:34:54.831Z,33.20
2018-11-05T18:37:23.993Z,40.00
2018-11-05T18:39:52.232Z,35.37
2018-11-05T18:42:20.503Z,38.10
2018-11-05T18:44:48.767Z,33.93
2018-11-05T18:47:17.042Z,36.83
2018-11-05T18:49:46.874Z,31.40
2018-11-05T18:52:13.548Z,37.10
2018-11-05T18:54:41.868Z,33.10
2018-11-05T18:57:10.249Z,33.60
2018-11-05T18:59:38.502Z,36.10
2018-11-05T19:02:06.909Z,30.77
2018-11-05T19:04:35.341Z,35.60
2018-11-05T19:07:03.728Z,48.98
2018-11-05T19:09:32.043Z,41.50
2018-11-05T19:12:00.316Z,34.47
2018-11-05T19:14:28.609Z,36.63
2018-11-05T19:16:56.895Z,38.67
2018-11-05T19:19:25.199Z,30.20
2018-11-05T19:21:53.424Z,32.37
2018-11-05T19:24:21.861Z,32.53
2018-11-05T19:26:50.090Z,37.80
2018-11-05T19:29:18.387Z,30.33
2018-11-05T19:31:46.646Z,32.87
2018-11-05T19:34:15.072Z,39.77
2018-11-05T19:36:43.314Z,40.83
2018-11-05T19:39:12.940Z,37.03
2018-11-05T19:41:41.536Z,36.25
2018-11-05T19:44:09.858Z,31.82
2018-11-05T19:46:38.654Z,34.92
2018-11-05T19:49:06.959Z,33.18
2018-11-05T19:51:35.575Z,34.78
2018-11-05T19:54:03.917Z,31.00
2018-11-05T19:56:32.239Z,28.92
2018-11-05T19:59:00.594Z,31.50
2018-11-05T20:01:28.896Z,36.95
2018-11-05T20:03:57.191Z,27.60
2018-11-05T20:06:25.611Z,39.15
2018-11-05T20:08:53.916Z,37.42
2018-11-05T20:11:22.286Z,31.15
2018-11-05T20:13:50.644Z,29.92
2018-11-05T20:16:18.907Z,28.73
2018-11-05T20:18:47.517Z,27.45
2018-11-05T20:21:15.978Z,28.92
2018-11-05T20:23:44.589Z,30.72
2018-11-05T20:26:12.867Z,25.12
2018-11-05T20:28:41.225Z,29.40
2018-11-05T20:31:09.586Z,24.92
2018-11-05T20:33:38.095Z,28.17
2018-11-05T20:36:06.132Z,29.25
2018-11-05T20:38:34.409Z,26.30
2018-11-05T20:41:02.717Z,26.70
2018-11-05T20:43:30.981Z,24.35
2018-11-05T20:45:59.255Z,31.50
2018-11-05T20:48:27.512Z,25.68
2018-11-05T20:50:55.867Z,29.10
2018-11-05T20:53:24.202Z,29.20
2018-11-05T20:55:52.562Z,26.70
2018-11-05T20:58:20.818Z,31.27
2018-11-05T21:00:49.166Z,25.92
2018-11-05T21:03:17.499Z,20.70
2018-11-05T21:05:45.834Z,31.37
2018-11-05T21:08:14.146Z,24.07
2018-11-05T21:10:42.455Z,27.62
2018-11-05T21:13:10.708Z,30.23
2018-11-05T21:15:39.005Z,27.98
2018-11-05T21:18:07.469Z,27.20
2018-11-05T21:20:35.642Z,26.97
2018-11-05T21:23:04.028Z,28.70
2018-11-05T21:25:32.210Z,29.37
2018-11-05T21:28:00.552Z,30.57
2018-11-05T21:30:28.909Z,30.72
2018-11-05T21:32:57.376Z,31.93
2018-11-05T21:35:25.628Z,27.17
2018-11-05T21:37:53.967Z,25.37
2018-11-05T21:40:22.345Z,28.98
2018-11-05T21:42:50.799Z,29.23
2018-11-05T21:45:19.108Z,29.50
2018-11-05T21:47:47.419Z,26.02
2018-11-05T21:50:17.073Z,32.15
2018-11-05T21:52:45.778Z,29.82
2018-11-05T21:55:14.047Z,24.45
2018-11-05T21:57:43.933Z,25.57
2018-11-05T22:00:14.195Z,25.02
2018-11-05T22:02:47.840Z,30.05
2018-11-05T22:05:16.442Z,28.75
2018-11-05T22:07:45.127Z,30.52
2018-11-05T22:10:14.131Z,29.23
2018-11-05T22:12:43.011Z,31.35
2018-11-05T22:15:11.367Z,27.60
2018-11-05T22:17:39.709Z,30.68
2018-11-05T22:20:08.915Z,30.88
2018-11-05T22:22:37.315Z,33.45
2018-11-05T22:25:05.684Z,28.50
2018-11-05T22:27:34.129Z,31.93
2018-11-05T22:30:02.285Z,29.00
2018-11-05T22:32:30.987Z,25.35
2018-11-05T22:35:00.173Z,27.60
2018-11-05T22:37:28.572Z,29.80
2018-11-05T22:39:56.877Z,29.23
2018-11-05T22:42:25.212Z,27.85
2018-11-05T22:44:53.517Z,28.20
2018-11-05T22:47:21.766Z,25.00
2018-11-05T22:49:50.057Z,33.70
2018-11-05T22:52:18.348Z,25.43
2018-11-05T22:54:46.940Z,22.70
2018-11-05T22:57:15.220Z,29.75
2018-11-05T22:59:43.633Z,22.17
2018-11-05T23:02:12.054Z,28.20
2018-11-05T23:04:40.454Z,25.02
2018-11-05T23:07:08.758Z,26.82
2018-11-05T23:09:37.023Z,22.07
2018-11-05T23:12:05.430Z,23.40
2018-11-05T23:14:33.753Z,21.65
2018-11-05T23:17:02.099Z,24.43
2018-11-05T23:19:30.374Z,26.50
2018-11-05T23:21:58.646Z,26.80
2018-11-05T23:24:26.935Z,25.92
2018-11-05T23:26:55.262Z,29.12
2018-11-05T23:29:23.566Z,25.48
2018-11-05T23:31:51.912Z,25.82
2018-11-05T23:34:20.180Z,25.43
2018-11-05T23:36:48.477Z,23.02
2018-11-05T23:39:16.774Z,22.07
2018-11-05T23:41:45.102Z,21.97
2018-11-05T23:44:13.416Z,23.07
2018-11-05T23:46:41.707Z,24.25
2018-11-05T23:49:10.003Z,24.55
2018-11-05T23:51:38.300Z,22.55
2018-11-05T23:54:06.539Z,23.67
2018-11-05T23:56:34.804Z,23.75
2018-11-05T23:59:03.006Z,27.15
